Time;durP1;ratioP1;P1;durP2;ratioP2;P2;SDS_P1;SDS_P2;PMS_P1;PMS_P2;Temp;Humidity;BMP_temperature;BMP_pressure;BME280_temperature;BME280_humidity;BME280_pressure;Samples;Min_cycle;Max_cycle;Signal;HPM_P1;HPM_P2
2021/01/16 00:02:01;;;;;;;35.17;20.20;;;1.90;90.20;;;;;;5113051;27;20030;-80
2021/01/16 00:04:26;;;;;;;28.70;18.48;;;1.80;90.10;;;;;;5128913;27;20376;-80
2021/01/16 00:06:53;;;;;;;31.13;18.45;;;1.80;90.20;;;;;;5097114;28;20357;-80
2021/01/16 00:09:19;;;;;;;28.05;16.73;;;1.80;90.20;;;;;;5113140;28;20027;-80
2021/01/16 00:11:47;;;;;;;25.85;16.23;;;1.80;90.20;;;;;;5115328;28;20023;-80
2021/01/16 00:14:13;;;;;;;25.50;15.93;;;1.90;90.20;;;;;;5115204;28;20062;-80
2021/01/16 00:16:38;;;;;;;25.50;15.85;;;1.80;90.50;;;;;;5113610;28;20059;-79
2021/01/16 00:19:04;;;;;;;24.85;16.30;;;1.90;90.20;;;;;;5115128;28;20043;-80
2021/01/16 00:21:29;;;;;;;24.00;15.13;;;1.90;90.50;;;;;;5088368;28;20031;-80
2021/01/16 00:23:55;;;;;;;27.17;16.08;;;1.90;90.20;;;;;;5079951;28;20497;-80
2021/01/16 00:26:20;;;;;;;25.52;15.63;;;1.90;90.20;;;;;;5096870;28;20028;-80
2021/01/16 00:28:46;;;;;;;26.30;15.85;;;1.90;90.20;;;;;;5084480;27;20542;-79
2021/01/16 00:31:12;;;;;;;25.92;15.43;;;1.90;90.20;;;;;;5116965;27;20083;-80
2021/01/16 00:33:37;;;;;;;24.15;15.07;;;1.90;90.20;;;;;;5099332;28;20466;-80
2021/01/16 00:36:04;;;;;;;24.30;16.08;;;1.90;90.30;;;;;;5099701;28;20076;-80
2021/01/16 00:38:38;;;;;;;28.95;18.40;;;1.90;90.30;;;;;;5114555;28;20118;-80
2021/01/16 00:41:04;;;;;;;28.63;18.23;;;1.90;90.20;;;;;;5114313;27;20032;-80
2021/01/16 00:43:30;;;;;;;27.65;17.05;;;1.90;90.30;;;;;;5095969;28;20032;-80
2021/01/16 00:45:55;;;;;;;27.27;16.45;;;1.90;90.20;;;;;;5098988;28;20032;-80
2021/01/16 00:48:23;;;;;;;22.98;15.23;;;1.90;90.20;;;;;;5100166;28;20361;-80
2021/01/16 00:50:51;;;;;;;24.85;15.82;;;1.90;90.20;;;;;;5114030;28;20030;-80
2021/01/16 00:53:17;;;;;;;27.63;17.75;;;1.90;90.20;;;;;;5095524;28;20433;-80
2021/01/16 00:55:43;;;;;;;28.00;16.60;;;1.80;90.30;;;;;;5113963;28;20080;-80
2021/01/16 00:58:14;;;;;;;26.15;17.20;;;1.80;90.20;;;;;;5114476;28;20115;-80
2021/01/16 01:00:45;;;;;;;27.85;17.60;;;1.80;90.30;;;;;;5115657;27;20015;-80
2021/01/16 01:03:16;;;;;;;26.70;16.75;;;1.80;90.30;;;;;;5111935;27;20372;-80
2021/01/16 01:05:42;;;;;;;26.27;15.65;;;1.80;90.30;;;;;;5134649;27;20023;-80
2021/01/16 01:08:07;;;;;;;26.92;16.60;;;1.80;90.20;;;;;;5134779;27;20484;-80
2021/01/16 01:10:45;;;;;;;25.50;16.10;;;1.80;90.20;;;;;;5107448;28;20055;-80
2021/01/16 01:13:11;;;;;;;24.65;15.65;;;1.80;90.30;;;;;;5113870;28;20024;-79
2021/01/16 01:15:37;;;;;;;27.23;17.23;;;1.70;90.30;;;;;;5095880;28;20032;-79
2021/01/16 01:18:04;;;;;;;27.27;17.35;;;1.70;90.30;;;;;;5114113;28;20031;-80
2021/01/16 01:20:31;;;;;;;25.50;15.75;;;1.70;90.40;;;;;;5095797;28;20038;-80
2021/01/16 01:22:56;;;;;;;27.20;16.85;;;1.70;90.40;;;;;;5096015;28;20073;-80
2021/01/16 01:25:23;;;;;;;26.73;16.23;;;1.70;90.40;;;;;;5119905;27;20027;-80
2021/01/16 01:28:00;;;;;;;27.80;17.83;;;1.70;90.40;;;;;;5116126;27;20043;-79
2021/01/16 01:30:31;;;;;;;30.55;17.55;;;1.70;90.80;;;;;;5132894;27;20036;-80
2021/01/16 01:32:57;;;;;;;25.42;16.75;;;1.70;90.40;;;;;;5113574;28;20487;-80
2021/01/16 01:35:23;;;;;;;26.75;17.13;;;1.70;90.40;;;;;;5113922;28;20369;-80
2021/01/16 01:37:51;;;;;;;27.60;16.88;;;1.70;90.40;;;;;;5113479;28;20083;-80
2021/01/16 01:40:19;;;;;;;29.50;18.08;;;1.70;90.50;;;;;;5113880;28;20059;-80
2021/01/16 01:42:49;;;;;;;31.25;18.00;;;1.70;90.50;;;;;;5113509;28;20085;-80
2021/01/16 01:45:16;;;;;;;28.73;16.83;;;1.70;90.50;;;;;;5113705;28;20024;-80
2021/01/16 01:47:43;;;;;;;23.77;15.70;;;1.80;90.50;;;;;;5113424;28;20028;-80
2021/01/16 01:50:12;;;;;;;26.30;16.35;;;1.80;90.50;;;;;;5115044;28;20075;-79
2021/01/16 01:52:39;;;;;;;24.75;16.48;;;1.80;90.50;;;;;;5102721;28;20030;-80
2021/01/16 01:55:07;;;;;;;29.00;16.98;;;1.80;90.50;;;;;;5113420;28;20023;-80
2021/01/16 01:57:37;;;;;;;28.48;17.65;;;1.80;90.50;;;;;;5113628;28;20415;-80
2021/01/16 02:00:10;;;;;;;26.73;17.50;;;1.80;90.50;;;;;;5100934;28;20027;-80
2021/01/16 02:02:37;;;;;;;29.33;17.10;;;1.80;90.50;;;;;;5093050;28;20107;-80
2021/01/16 02:05:07;;;;;;;24.92;16.58;;;1.80;90.50;;;;;;5109312;28;20365;-80
2021/01/16 02:07:39;;;;;;;28.02;18.02;;;1.80;90.50;;;;;;5113149;28;20034;-80
2021/01/16 02:10:12;;;;;;;26.55;16.45;;;1.80;90.50;;;;;;5113055;28;20031;-80
2021/01/16 02:12:40;;;;;;;30.02;16.88;;;1.80;90.50;;;;;;5113145;28;20024;-79
2021/01/16 02:15:14;;;;;;;25.67;16.35;;;1.80;90.50;;;;;;5113359;28;20034;-80
2021/01/16 02:17:42;;;;;;;26.63;15.93;;;1.80;90.50;;;;;;5113925;28;20039;-80
2021/01/16 02:20:10;;;;;;;25.00;16.02;;;1.80;90.50;;;;;;5131008;28;20129;-80
2021/01/16 02:23:11;;;;;;;27.65;16.80;;;1.90;90.50;;;;;;5115407;27;20120;-80
2021/01/16 02:25:40;;;;;;;30.10;17.35;;;1.90;90.60;;;;;;5084491;28;20031;-80
2021/01/16 02:28:07;;;;;;;25.25;16.63;;;1.80;90.40;;;;;;5133941;28;20509;-80
2021/01/16 02:30:40;;;;;;;27.70;16.40;;;1.80;90.40;;;;;;5133719;28;20034;-80
2021/01/16 02:33:08;;;;;;;30.38;17.75;;;1.80;90.50;;;;;;5115582;28;20042;-80
2021/01/16 02:35:43;;;;;;;32.20;18.77;;;1.80;90.50;;;;;;5133952;28;20107;-80
2021/01/16 02:38:34;;;;;;;27.02;17.23;;;1.80;90.40;;;;;;5133765;28;20475;-80
2021/01/16 02:41:10;;;;;;;29.52;17.80;;;1.80;90.50;;;;;;5135652;27;20026;-80
2021/01/16 02:43:43;;;;;;;34.60;17.17;;;1.70;90.40;;;;;;5137595;27;20029;-80
2021/01/16 02:46:42;;;;;;;28.05;17.25;;;1.70;90.40;;;;;;5134985;27;20391;-80
2021/01/16 02:49:26;;;;;;;27.63;16.85;;;1.70;90.80;;;;;;5117077;27;20447;-80
2021/01/16 02:52:08;;;;;;;26.33;17.13;;;1.70;90.50;;;;;;5116884;28;20051;-80
2021/01/16 02:54:36;;;;;;;31.65;18.58;;;1.70;90.50;;;;;;5078126;28;20060;-80
2021/01/16 02:57:04;;;;;;;25.55;16.60;;;1.70;90.50;;;;;;5096343;28;20031;-80
2021/01/16 02:59:34;;;;;;;26.48;16.55;;;1.70;90.50;;;;;;5096370;28;20714;-80
2021/01/16 03:02:02;;;;;;;28.70;17.92;;;1.70;90.50;;;;;;5096357;28;20435;-80
2021/01/16 03:04:28;;;;;;;27.67;16.08;;;1.80;90.50;;;;;;5082461;28;20027;-80
2021/01/16 03:06:55;;;;;;;31.35;18.17;;;1.70;90.40;;;;;;5120337;27;20016;-80
2021/01/16 03:09:22;;;;;;;28.25;17.35;;;1.70;90.40;;;;;;5116663;28;20016;-80
2021/01/16 03:11:49;;;;;;;30.70;16.90;;;1.70;90.50;;;;;;5116613;28;20072;-80
2021/01/16 03:14:17;;;;;;;31.75;16.45;;;1.70;90.50;;;;;;5116381;28;20027;-80
2021/01/16 03:17:10;;;;;;;26.25;17.50;;;1.80;90.50;;;;;;5116261;28;20031;-80
2021/01/16 03:19:38;;;;;;;32.88;17.33;;;1.70;90.50;;;;;;5096845;27;20498;-78
2021/01/16 03:22:19;;;;;;;28.63;17.33;;;1.70;90.40;;;;;;5136851;27;20532;-79
2021/01/16 03:24:46;;;;;;;27.10;17.73;;;1.80;90.50;;;;;;5101512;27;20034;-79
2021/01/16 03:27:12;;;;;;;28.38;16.88;;;1.80;90.40;;;;;;5136175;27;20027;-79
2021/01/16 03:29:38;;;;;;;27.27;18.50;;;1.80;90.40;;;;;;5118388;27;20034;-79
2021/01/16 03:32:05;;;;;;;27.02;18.13;;;1.80;90.40;;;;;;5118402;27;20066;-79
2021/01/16 03:34:30;;;;;;;25.52;16.88;;;1.70;90.40;;;;;;5136783;27;20023;-79
2021/01/16 03:36:56;;;;;;;30.92;16.95;;;1.80;90.40;;;;;;5114321;28;20026;-79
2021/01/16 03:39:22;;;;;;;30.00;17.35;;;1.70;90.40;;;;;;5116017;28;20031;-79
2021/01/16 03:41:47;;;;;;;33.65;17.27;;;1.80;90.40;;;;;;5115884;28;20085;-79
2021/01/16 03:44:13;;;;;;;27.30;17.55;;;1.80;90.40;;;;;;5097626;28;20035;-79
2021/01/16 03:46:38;;;;;;;28.08;16.85;;;1.80;90.40;;;;;;5097706;28;20024;-79
2021/01/16 03:49:04;;;;;;;30.35;16.75;;;1.80;90.30;;;;;;5097641;28;20035;-79
2021/01/16 03:51:30;;;;;;;27.58;16.75;;;1.80;90.30;;;;;;5102083;27;20039;-79
2021/01/16 03:53:55;;;;;;;29.42;17.70;;;1.80;90.30;;;;;;5135990;27;20035;-79
2021/01/16 03:56:21;;;;;;;28.40;17.50;;;1.80;90.30;;;;;;5117959;27;20034;-78
2021/01/16 03:58:46;;;;;;;28.40;17.35;;;1.70;90.30;;;;;;5100961;27;20027;-78
2021/01/16 04:01:12;;;;;;;26.27;17.02;;;1.80;90.30;;;;;;5082669;27;20023;-78
2021/01/16 04:03:37;;;;;;;35.38;18.75;;;1.80;90.30;;;;;;5115685;28;20024;-79
2021/01/16 04:06:03;;;;;;;27.60;16.90;;;1.80;90.20;;;;;;5097068;28;20028;-79
2021/01/16 04:08:29;;;;;;;24.65;16.52;;;1.80;90.20;;;;;;5115487;28;20152;-79
2021/01/16 04:10:54;;;;;;;23.50;15.73;;;1.80;90.20;;;;;;5097095;28;20031;-79
2021/01/16 04:13:20;;;;;;;25.70;16.50;;;1.80;90.20;;;;;;5080002;28;21822;-79
2021/01/16 04:15:46;;;;;;;27.98;16.75;;;1.80;90.20;;;;;;5101373;27;20072;-78
2021/01/16 04:18:12;;;;;;;28.70;16.58;;;1.80;90.10;;;;;;5080137;28;20039;-79
2021/01/16 04:20:37;;;;;;;29.15;16.83;;;1.90;90.10;;;;;;5097115;28;20426;-79
2021/01/16 04:23:03;;;;;;;26.55;16.75;;;1.80;90.10;;;;;;5096733;28;20027;-78
2021/01/16 04:25:29;;;;;;;26.85;16.73;;;1.80;90.10;;;;;;5115021;28;20028;-78
2021/01/16 04:27:54;;;;;;;29.90;17.38;;;1.80;90.00;;;;;;5096750;28;20023;-78
2021/01/16 04:30:20;;;;;;;28.10;17.92;;;1.80;90.10;;;;;;5096762;28;20544;-73
2021/01/16 04:32:46;;;;;;;30.17;18.15;;;1.80;90.30;;;;;;5114688;28;20059;-73
2021/01/16 04:35:11;;;;;;;25.88;16.27;;;1.80;90.00;;;;;;5089350;27;20448;-73
2021/01/16 04:37:37;;;;;;;28.05;17.52;;;1.90;90.10;;;;;;5105403;27;20547;-73
2021/01/16 04:40:04;;;;;;;27.92;17.80;;;1.90;90.10;;;;;;5108583;28;20051;-73
2021/01/16 04:42:30;;;;;;;28.48;17.08;;;1.90;90.00;;;;;;5105112;28;20476;-73
2021/01/16 04:44:58;;;;;;;28.42;16.85;;;1.90;90.00;;;;;;5109697;28;20034;-73
2021/01/16 04:47:28;;;;;;;27.60;16.75;;;1.90;90.00;;;;;;5093539;27;20413;-73
2021/01/16 04:49:58;;;;;;;29.20;18.15;;;1.90;90.00;;;;;;5109832;28;20518;-73
2021/01/16 04:52:28;;;;;;;25.73;17.25;;;1.90;90.00;;;;;;5098889;27;20023;-73
2021/01/16 04:54:55;;;;;;;27.30;17.65;;;1.90;90.10;;;;;;5106374;28;20032;-73
2021/01/16 04:57:27;;;;;;;28.73;17.40;;;1.90;90.10;;;;;;5119983;27;20035;-73
2021/01/16 04:59:54;;;;;;;29.63;17.10;;;1.90;90.10;;;;;;5076252;28;20044;-73
2021/01/16 05:02:22;;;;;;;29.05;17.55;;;1.90;90.10;;;;;;5095857;27;20118;-72
2021/01/16 05:04:50;;;;;;;30.37;17.10;;;1.90;90.10;;;;;;5075404;28;20051;-73
2021/01/16 05:07:18;;;;;;;28.65;17.83;;;1.90;90.10;;;;;;5101928;27;20562;-72
2021/01/16 05:09:45;;;;;;;28.05;17.52;;;1.90;90.10;;;;;;5102603;27;20056;-72
2021/01/16 05:12:30;;;;;;;29.13;17.67;;;1.90;90.10;;;;;;5102297;28;20436;-73
2021/01/16 05:15:15;;;;;;;29.20;17.67;;;2.00;90.20;;;;;;5108602;28;20030;-73
2021/01/16 05:17:46;;;;;;;28.83;17.40;;;1.90;90.20;;;;;;5104441;27;20038;-73
2021/01/16 05:20:13;;;;;;;35.35;19.10;;;1.90;90.10;;;;;;5115105;27;20075;-73
2021/01/16 05:22:39;;;;;;;26.40;16.45;;;1.90;90.10;;;;;;5062317;28;20447;-72
2021/01/16 05:25:07;;;;;;;30.50;17.52;;;1.90;90.10;;;;;;5113373;27;20050;-73
2021/01/16 05:27:35;;;;;;;29.80;18.42;;;1.90;90.10;;;;;;5089863;28;20051;-73
2021/01/16 05:30:09;;;;;;;26.98;17.63;;;1.90;90.10;;;;;;5110334;27;20479;-74
2021/01/16 05:32:35;;;;;;;26.08;17.42;;;1.90;90.10;;;;;;5101522;28;20055;-73
2021/01/16 05:35:21;;;;;;;28.77;17.08;;;1.90;90.10;;;;;;5078533;28;20170;-73
2021/01/16 05:37:49;;;;;;;28.92;17.27;;;1.90;90.20;;;;;;5105181;28;20036;-79
2021/01/16 05:40:17;;;;;;;29.85;17.45;;;1.90;90.10;;;;;;5095731;28;20031;-79
2021/01/16 05:42:43;;;;;;;29.85;17.92;;;1.90;90.10;;;;;;5095503;28;20069;-78
2021/01/16 05:45:11;;;;;;;32.67;18.35;;;1.90;90.00;;;;;;5075702;28;20089;-79
2021/01/16 05:47:42;;;;;;;31.45;17.15;;;1.90;90.30;;;;;;5089813;28;20102;-79
2021/01/16 05:50:12;;;;;;;32.55;17.23;;;1.90;90.10;;;;;;5113376;28;20095;-78
2021/01/16 05:52:39;;;;;;;28.13;17.08;;;1.90;90.10;;;;;;5106354;28;20548;-79
2021/01/16 05:55:07;;;;;;;30.20;17.60;;;1.90;90.10;;;;;;5095304;28;20660;-79
2021/01/16 05:57:34;;;;;;;28.25;17.25;;;1.90;90.10;;;;;;5120883;27;20032;-79
2021/01/16 06:00:01;;;;;;;30.33;17.85;;;1.90;90.10;;;;;;5096658;28;20111;-79
2021/01/16 06:02:32;;;;;;;31.00;16.92;;;1.90;90.10;;;;;;5078433;28;20038;-79
2021/01/16 06:04:58;;;;;;;27.52;17.10;;;1.90;90.10;;;;;;5113518;28;20063;-78
2021/01/16 06:07:26;;;;;;;31.00;19.55;;;1.90;90.00;;;;;;5095319;28;20020;-79
2021/01/16 06:09:53;;;;;;;37.65;20.60;;;1.90;90.10;;;;;;5123079;28;20019;-78
2021/01/16 06:12:20;;;;;;;33.35;19.40;;;1.90;90.30;;;;;;5134092;28;20043;-78
2021/01/16 06:14:47;;;;;;;36.80;21.33;;;1.90;90.10;;;;;;5130281;27;20507;-78
2021/01/16 06:17:14;;;;;;;29.88;19.70;;;1.90;90.10;;;;;;5117655;28;20139;-78
2021/01/16 06:19:48;;;;;;;34.35;19.13;;;1.90;90.10;;;;;;5099249;28;20034;-80
2021/01/16 06:22:16;;;;;;;28.33;18.95;;;1.90;90.10;;;;;;5099123;28;20028;-79
2021/01/16 06:24:47;;;;;;;32.10;18.50;;;1.90;90.10;;;;;;5117426;28;20407;-78
2021/01/16 06:27:24;;;;;;;33.67;19.42;;;1.90;90.10;;;;;;5098982;28;20024;-78
2021/01/16 06:30:01;;;;;;;32.00;18.98;;;1.90;90.20;;;;;;5098832;28;20365;-78
2021/01/16 06:32:29;;;;;;;34.13;19.25;;;1.90;90.20;;;;;;5098735;28;20039;-78
2021/01/16 06:35:10;;;;;;;30.33;19.70;;;1.90;90.50;;;;;;5098896;28;20071;-78
2021/01/16 06:37:49;;;;;;;28.48;17.92;;;1.90;90.20;;;;;;5116981;28;20057;-78
2021/01/16 06:40:31;;;;;;;29.02;18.70;;;1.90;90.20;;;;;;5098701;28;20552;-78
2021/01/16 06:42:58;;;;;;;29.50;17.60;;;1.90;90.20;;;;;;5117085;28;20023;-78
2021/01/16 06:45:25;;;;;;;27.15;17.42;;;1.90;90.20;;;;;;5098483;28;20020;-78
2021/01/16 06:47:56;;;;;;;28.08;17.20;;;1.90;90.10;;;;;;5099033;28;20028;-78
2021/01/16 06:50:22;;;;;;;32.42;19.23;;;1.90;90.10;;;;;;5116891;28;20410;-78
2021/01/16 06:52:47;;;;;;;27.88;17.60;;;1.90;90.10;;;;;;5116752;28;20080;-78
2021/01/16 06:55:17;;;;;;;28.80;17.92;;;1.90;90.10;;;;;;5116753;28;20080;-78
2021/01/16 06:57:43;;;;;;;31.10;18.67;;;1.90;90.20;;;;;;5098276;28;20066;-79
2021/01/16 07:00:10;;;;;;;31.48;18.92;;;1.90;90.10;;;;;;5116694;28;20061;-78
2021/01/16 07:02:37;;;;;;;31.92;18.38;;;1.90;90.10;;;;;;5098367;28;20064;-78
2021/01/16 07:05:07;;;;;;;29.33;17.30;;;1.90;90.10;;;;;;5099797;28;20023;-79
2021/01/16 07:07:41;;;;;;;29.65;17.42;;;1.90;90.10;;;;;;5116482;28;20026;-78
2021/01/16 07:10:13;;;;;;;28.92;17.13;;;1.90;90.20;;;;;;5116595;28;20023;-79
2021/01/16 07:12:44;;;;;;;28.80;18.08;;;1.90;90.20;;;;;;5116480;28;20023;-79
2021/01/16 07:15:10;;;;;;;30.58;18.50;;;1.90;90.10;;;;;;5116636;28;20032;-79
2021/01/16 07:17:37;;;;;;;31.10;18.13;;;1.80;90.10;;;;;;5098165;28;20040;-78
2021/01/16 07:20:05;;;;;;;32.22;18.73;;;1.80;90.10;;;;;;5097770;28;20028;-78
2021/01/16 07:22:38;;;;;;;31.90;19.80;;;1.80;90.10;;;;;;5116291;28;20035;-79
2021/01/16 07:25:05;;;;;;;28.38;18.20;;;1.80;90.20;;;;;;5116381;28;20027;-78
2021/01/16 07:27:33;;;;;;;29.17;17.65;;;1.80;90.20;;;;;;5115143;28;20464;-78
2021/01/16 07:30:04;;;;;;;32.45;18.33;;;1.80;90.20;;;;;;5103301;28;20085;-78
2021/01/16 07:32:42;;;;;;;29.65;17.98;;;1.80;90.20;;;;;;5097665;28;20035;-78
2021/01/16 07:35:16;;;;;;;29.05;17.75;;;1.80;90.20;;;;;;5116176;28;20051;-78
2021/01/16 07:37:46;;;;;;;33.47;19.27;;;1.90;90.20;;;;;;5116249;28;20361;-78
2021/01/16 07:40:18;;;;;;;29.70;17.23;;;1.90;90.20;;;;;;5118832;27;20027;-78
2021/01/16 07:43:01;;;;;;;30.80;19.02;;;1.90;90.20;;;;;;5136358;27;20023;-78
2021/01/16 07:45:37;;;;;;;29.80;18.35;;;1.90;90.20;;;;;;5117238;27;20073;-78
2021/01/16 07:48:04;;;;;;;28.83;17.40;;;1.90;90.20;;;;;;5116456;28;20047;-78
2021/01/16 07:50:35;;;;;;;29.13;17.60;;;1.90;90.20;;;;;;5115806;28;20023;-78
2021/01/16 07:53:03;;;;;;;33.22;18.55;;;1.80;90.20;;;;;;5097105;28;20043;-78
2021/01/16 07:55:34;;;;;;;26.45;17.60;;;1.90;90.20;;;;;;5097234;28;20106;-79
2021/01/16 07:58:07;;;;;;;29.08;17.58;;;1.90;90.20;;;;;;5097381;28;20047;-79
2021/01/16 08:00:36;;;;;;;29.83;18.08;;;1.90;90.10;;;;;;5097377;28;20422;-78
2021/01/16 08:03:23;;;;;;;27.88;17.98;;;1.90;90.10;;;;;;5097322;28;20027;-78
2021/01/16 08:06:14;;;;;;;33.50;17.80;;;2.00;90.20;;;;;;5097159;28;20110;-78
2021/01/16 08:09:04;;;;;;;29.13;17.58;;;1.90;90.10;;;;;;5115265;28;20146;-78
2021/01/16 08:11:32;;;;;;;31.42;18.58;;;1.90;90.10;;;;;;5097120;28;20028;-73
2021/01/16 08:14:03;;;;;;;30.30;17.63;;;2.00;90.10;;;;;;5107109;28;20085;-73
2021/01/16 08:16:29;;;;;;;29.90;18.15;;;2.00;90.10;;;;;;5120202;27;20029;-73
2021/01/16 08:19:13;;;;;;;37.13;18.90;;;2.00;90.10;;;;;;5104483;28;20111;-73
2021/01/16 08:21:56;;;;;;;30.20;18.23;;;2.00;90.10;;;;;;5114666;28;20092;-73
2021/01/16 08:24:27;;;;;;;27.25;17.13;;;2.00;90.10;;;;;;5102880;28;20063;-73
2021/01/16 08:27:03;;;;;;;28.42;18.20;;;2.00;90.00;;;;;;5099977;28;20068;-73
2021/01/16 08:29:31;;;;;;;32.65;19.38;;;2.00;90.00;;;;;;5097063;27;20149;-73
2021/01/16 08:32:09;;;;;;;28.60;17.98;;;2.00;90.20;;;;;;5110653;28;20702;-74
2021/01/16 08:34:54;;;;;;;26.08;17.55;;;2.00;89.80;;;;;;5086033;27;20040;-74
2021/01/16 08:37:47;;;;;;;29.17;17.38;;;2.10;89.80;;;;;;5095920;28;20042;-73
2021/01/16 08:40:13;;;;;;;28.85;18.23;;;2.10;89.90;;;;;;5109513;27;20046;-73
2021/01/16 08:42:52;;;;;;;28.23;17.92;;;2.10;89.70;;;;;;5097152;28;20403;-73
2021/01/16 08:45:18;;;;;;;;;;;2.20;89.80;;;;;;5114305;28;20106;-74
2021/01/16 08:47:50;;;;;;;28.23;17.20;;;2.20;89.60;;;;;;5100265;28;20382;-74
2021/01/16 08:50:16;;;;;;;30.20;17.67;;;2.20;89.70;;;;;;5113838;28;20031;-74
2021/01/16 08:52:42;;;;;;;30.77;18.23;;;2.20;89.60;;;;;;5096971;28;20031;-74
2021/01/16 08:55:08;;;;;;;28.75;17.90;;;2.20;89.60;;;;;;5116619;27;20032;-73
2021/01/16 08:57:38;;;;;;;30.63;17.85;;;2.20;89.50;;;;;;5078481;28;20118;-74
2021/01/16 09:00:23;;;;;;;28.92;18.50;;;2.30;89.50;;;;;;5126497;27;20035;-73
2021/01/16 09:03:19;;;;;;;23.73;16.05;;;2.30;89.40;;;;;;5095102;28;20019;-74
2021/01/16 09:05:47;;;;;;;29.35;17.33;;;2.30;89.30;;;;;;5087115;28;20055;-73
2021/01/16 09:08:20;;;;;;;28.58;18.15;;;2.30;89.20;;;;;;5112648;28;20069;-73
2021/01/16 09:10:47;;;;;;;27.17;17.15;;;2.30;88.80;;;;;;5113633;28;20027;-74
2021/01/16 09:13:29;;;;;;;30.73;17.38;;;2.30;88.70;;;;;;5116763;27;20087;-74
2021/01/16 09:15:56;;;;;;;26.17;16.70;;;2.40;88.80;;;;;;5115537;27;20039;-73
2021/01/16 09:18:23;;;;;;;27.02;17.15;;;2.40;88.70;;;;;;5129230;27;20027;-73
2021/01/16 09:20:51;;;;;;;26.27;16.73;;;2.40;88.50;;;;;;5095409;28;20085;-80
2021/01/16 09:23:21;;;;;;;27.23;16.95;;;2.50;88.40;;;;;;5113695;28;20024;-79
2021/01/16 09:25:47;;;;;;;28.00;17.52;;;2.50;88.20;;;;;;5093723;28;20035;-80
2021/01/16 09:28:13;;;;;;;26.70;16.40;;;2.50;88.20;;;;;;5086224;28;20023;-78
2021/01/16 09:30:39;;;;;;;27.77;16.77;;;2.50;88.10;;;;;;5097195;27;20077;-77
2021/01/16 09:33:42;;;;;;;25.40;15.52;;;2.60;88.20;;;;;;5125634;27;20027;-77
2021/01/16 09:36:07;;;;;;;26.75;16.60;;;2.80;87.90;;;;;;5072160;28;20168;-77
2021/01/16 09:38:33;;;;;;;27.92;16.40;;;2.90;88.10;;;;;;5113874;28;20111;-81
2021/01/16 09:40:59;;;;;;;29.95;18.10;;;3.10;87.00;;;;;;5078785;28;20031;-80
2021/01/16 09:43:26;;;;;;;27.85;17.05;;;3.00;86.30;;;;;;5078557;28;20472;-80
2021/01/16 09:45:55;;;;;;;29.60;16.88;;;3.00;86.20;;;;;;5095690;28;20055;-80
2021/01/16 09:48:30;;;;;;;27.23;16.30;;;3.00;86.30;;;;;;5105087;28;20032;-80
2021/01/16 09:50:57;;;;;;;23.92;15.10;;;2.90;86.20;;;;;;5091024;28;20016;-74
2021/01/16 09:53:25;;;;;;;25.48;16.17;;;2.90;86.40;;;;;;5099780;28;20047;-74
2021/01/16 09:55:53;;;;;;;25.15;16.17;;;2.90;86.50;;;;;;5131766;27;20055;-74
2021/01/16 09:58:40;;;;;;;31.70;16.25;;;2.90;86.40;;;;;;5114948;28;20578;-73
2021/01/16 10:01:27;;;;;;;25.58;15.13;;;2.90;86.30;;;;;;5115070;28;20106;-74
2021/01/16 10:03:54;;;;;;;25.98;15.00;;;3.00;86.50;;;;;;5123853;28;20031;-74
2021/01/16 10:06:30;;;;;;;23.80;14.95;;;3.10;86.20;;;;;;5095223;28;20042;-73
2021/01/16 10:08:56;;;;;;;26.95;14.98;;;3.20;85.90;;;;;;5119120;28;20019;-73
2021/01/16 10:11:42;;;;;;;23.77;14.93;;;3.30;85.50;;;;;;5113483;28;20041;-74
2021/01/16 10:14:19;;;;;;;23.92;15.25;;;3.40;85.10;;;;;;5110140;28;20493;-73
2021/01/16 10:16:45;;;;;;;25.50;15.23;;;3.50;84.90;;;;;;5113897;28;20035;-73
2021/01/16 10:19:12;;;;;;;22.63;14.18;;;3.50;84.60;;;;;;5133379;28;20114;-73
2021/01/16 10:21:53;;;;;;;24.08;15.25;;;3.60;84.40;;;;;;5100186;28;20044;-74
2021/01/16 10:24:20;;;;;;;22.70;14.75;;;3.60;83.40;;;;;;5090476;28;20055;-73
2021/01/16 10:26:47;;;;;;;30.85;15.45;;;3.60;83.30;;;;;;5077556;28;20023;-80
2021/01/16 10:29:36;;;;;;;24.25;15.00;;;3.60;82.50;;;;;;5111180;28;20024;-79
2021/01/16 10:32:18;;;;;;;24.88;14.93;;;3.50;82.60;;;;;;5071451;28;20044;-80
2021/01/16 10:34:45;;;;;;;25.40;15.15;;;3.50;82.30;;;;;;5054773;28;20515;-80
2021/01/16 10:37:11;;;;;;;24.00;15.57;;;3.50;82.10;;;;;;5072672;28;20036;-79
2021/01/16 10:39:39;;;;;;;22.27;14.65;;;3.40;81.90;;;;;;5072735;28;20021;-80
2021/01/16 10:42:13;;;;;;;26.20;15.43;;;3.40;81.90;;;;;;5072678;28;20025;-79
2021/01/16 10:44:39;;;;;;;25.02;15.38;;;3.50;82.20;;;;;;5072468;28;20033;-79
2021/01/16 10:47:35;;;;;;;24.80;15.48;;;3.40;81.60;;;;;;5081264;28;20035;-79
2021/01/16 10:50:28;;;;;;;24.05;15.90;;;3.50;81.10;;;;;;5106735;28;20023;-79
2021/01/16 10:53:01;;;;;;;29.17;16.33;;;3.40;81.40;;;;;;5061815;28;20538;-78
2021/01/16 10:55:54;;;;;;;27.10;15.68;;;3.40;81.10;;;;;;5071511;28;20375;-79
2021/01/16 10:58:24;;;;;;;26.98;16.45;;;3.50;81.00;;;;;;5072603;28;20025;-78
2021/01/16 11:00:55;;;;;;;29.17;16.77;;;3.50;80.30;;;;;;5071321;28;20480;-79
2021/01/16 11:03:26;;;;;;;28.63;16.92;;;3.50;80.50;;;;;;5075812;28;20500;-79
2021/01/16 11:05:53;;;;;;;34.97;18.35;;;3.50;80.50;;;;;;5074626;28;20029;-79
2021/01/16 11:08:29;;;;;;;30.25;16.92;;;3.50;80.40;;;;;;5075991;28;20441;-78
2021/01/16 11:10:56;;;;;;;27.08;16.63;;;3.60;80.40;;;;;;5074719;28;20111;-79
2021/01/16 11:13:28;;;;;;;23.48;14.85;;;3.60;80.30;;;;;;5092716;28;20024;-78
2021/01/16 11:16:24;;;;;;;27.23;16.23;;;3.60;80.50;;;;;;5090696;28;20033;-73
2021/01/16 11:18:50;;;;;;;24.88;14.98;;;3.70;80.10;;;;;;5092600;28;20030;-73
2021/01/16 11:21:39;;;;;;;26.85;14.35;;;3.70;80.00;;;;;;5080436;28;20029;-73
2021/01/16 11:24:35;;;;;;;22.70;13.98;;;3.70;79.90;;;;;;5090838;28;20108;-73
2021/01/16 11:27:08;;;;;;;22.90;12.30;;;3.80;78.90;;;;;;5094263;28;20065;-73
2021/01/16 11:29:44;;;;;;;19.40;11.98;;;3.70;79.10;;;;;;5095217;28;20024;-74
2021/01/16 11:32:18;;;;;;;18.40;12.15;;;3.70;79.10;;;;;;5092792;28;20040;-74
2021/01/16 11:35:02;;;;;;;18.80;11.65;;;3.80;79.20;;;;;;5093760;28;20039;-74
2021/01/16 11:37:49;;;;;;;16.92;11.07;;;3.80;78.90;;;;;;5092825;28;20549;-74
2021/01/16 11:40:28;;;;;;;18.60;11.07;;;3.80;78.40;;;;;;5092924;28;20032;-74
2021/01/16 11:43:15;;;;;;;18.58;11.05;;;3.80;77.80;;;;;;5094954;28;20411;-75
2021/01/16 11:45:40;;;;;;;19.00;10.80;;;3.80;76.40;;;;;;5095918;28;20044;-74
2021/01/16 11:48:07;;;;;;;17.35;10.32;;;3.80;77.20;;;;;;5097245;28;20039;-74
2021/01/16 11:50:35;;;;;;;14.75;10.15;;;3.80;76.40;;;;;;5093057;28;20415;-74
2021/01/16 11:53:12;;;;;;;15.23;9.60;;;3.80;76.60;;;;;;5095267;28;20480;-74
2021/01/16 11:55:38;;;;;;;15.32;9.80;;;3.80;76.80;;;;;;5110927;28;20027;-73
2021/01/16 11:58:04;;;;;;;15.20;10.15;;;3.80;76.60;;;;;;5092595;28;20040;-73
2021/01/16 12:00:31;;;;;;;16.48;9.82;;;3.70;76.50;;;;;;5060218;28;20039;-73
2021/01/16 12:02:58;;;;;;;17.33;10.35;;;3.80;76.00;;;;;;5064831;28;20069;-73
2021/01/16 12:05:25;;;;;;;12.73;8.48;;;3.80;76.00;;;;;;5109123;28;20036;-73
2021/01/16 12:07:55;;;;;;;14.93;9.20;;;3.80;75.70;;;;;;5098600;28;20399;-73
2021/01/16 12:10:26;;;;;;;13.35;8.63;;;3.80;75.90;;;;;;5095820;28;20050;-73
2021/01/16 12:12:53;;;;;;;11.48;7.68;;;3.80;76.00;;;;;;5093944;28;20472;-73
2021/01/16 12:15:22;;;;;;;15.20;6.72;;;3.80;75.80;;;;;;5073999;28;20492;-79
2021/01/16 12:17:50;;;;;;;8.18;5.53;;;3.80;74.90;;;;;;5093277;28;20142;-79
2021/01/16 12:20:18;;;;;;;8.30;5.47;;;3.80;74.10;;;;;;5093475;28;20118;-79
2021/01/16 12:22:45;;;;;;;9.35;6.03;;;3.80;73.90;;;;;;5076160;28;20036;-79
2021/01/16 12:25:15;;;;;;;9.40;5.85;;;3.80;73.90;;;;;;5096406;28;20032;-79
2021/01/16 12:27:50;;;;;;;9.10;5.90;;;3.80;73.60;;;;;;5097037;28;20427;-79
2021/01/16 12:30:23;;;;;;;7.68;4.70;;;3.80;73.80;;;;;;5115231;28;20024;-78
2021/01/16 12:32:50;;;;;;;7.22;5.30;;;3.80;72.90;;;;;;5093526;28;20095;-79
2021/01/16 12:35:23;;;;;;;7.45;4.65;;;3.80;72.60;;;;;;5096558;28;20457;-80
2021/01/16 12:37:48;;;;;;;7.50;4.35;;;3.80;71.90;;;;;;5114828;28;20030;-80
2021/01/16 12:40:16;;;;;;;7.60;4.97;;;3.80;71.90;;;;;;5095800;28;20020;-79
2021/01/16 12:42:42;;;;;;;8.48;4.93;;;3.80;70.80;;;;;;5093059;28;20034;-81
2021/01/16 12:45:14;;;;;;;8.35;4.82;;;3.70;71.80;;;;;;5094121;28;20111;-80
2021/01/16 12:47:41;;;;;;;9.88;4.75;;;3.70;71.20;;;;;;5094525;28;20024;-80
2021/01/16 12:50:08;;;;;;;6.13;4.50;;;3.70;71.10;;;;;;5094260;28;20028;-80
2021/01/16 12:52:33;;;;;;;9.93;6.00;;;3.70;70.90;;;;;;5093430;28;20373;-74
2021/01/16 12:55:00;;;;;;;10.70;5.50;;;3.80;71.10;;;;;;5093283;28;20077;-79
2021/01/16 12:57:29;;;;;;;7.95;5.30;;;3.70;71.40;;;;;;5093318;28;20035;-74